Time;durP1;ratioP1;P1;durP2;ratioP2;P2;SDS_P1;SDS_P2;PMS_P1;PMS_P2;Temp;Humidity;BMP_temperature;BMP_pressure;BME280_temperature;BME280_humidity;BME280_pressure;Samples;Min_cycle;Max_cycle;Signal;HPM_P1;HPM_P2
2021/10/13 04:53:50;;;;;;;6.05;3.50;;;;;;;2.56;84.55;100175.25;5004995;28;106361;-68
2021/10/13 04:56:16;;;;;;;7.97;4.00;;;;;;;2.61;84.40;100176.59;5006017;28;105744;-68
2021/10/13 04:58:41;;;;;;;7.57;4.85;;;;;;;2.68;84.99;100177.78;5004733;28;106343;-68
2021/10/13 05:01:07;;;;;;;8.95;4.32;;;;;;;2.77;84.84;100181.47;5005445;28;105966;-68
2021/10/13 05:03:33;;;;;;;9.52;4.57;;;;;;;2.83;84.68;100182.78;5004851;28;105920;-70
2021/10/13 05:05:58;;;;;;;7.32;4.53;;;;;;;2.90;84.82;100186.63;5005950;28;105838;-68
2021/10/13 05:08:24;;;;;;;9.18;4.95;;;;;;;2.96;84.57;100186.13;5005343;28;106123;-69
2021/10/13 05:10:49;;;;;;;6.85;4.35;;;;;;;2.98;84.66;100184.22;5004436;28;106163;-70
2021/10/13 05:13:14;;;;;;;7.85;4.25;;;;;;;2.97;84.33;100195.69;5004677;28;105977;-69
2021/10/13 05:15:42;;;;;;;8.55;4.57;;;;;;;2.99;84.50;100200.84;5005722;28;106404;-69
2021/10/13 05:18:08;;;;;;;7.75;5.18;;;;;;;3.04;84.72;100193.41;5005022;28;105828;-69
2021/10/13 05:20:34;;;;;;;6.25;4.40;;;;;;;3.09;84.93;100193.03;5004961;28;106549;-69
2021/10/13 05:23:00;;;;;;;7.10;4.28;;;;;;;3.15;84.46;100201.28;5004956;28;105827;-68
2021/10/13 05:25:26;;;;;;;8.65;4.72;;;;;;;3.23;84.94;100205.97;5004937;28;106433;-68
2021/10/13 05:27:51;;;;;;;6.68;4.45;;;;;;;3.29;84.91;100213.34;5005365;28;106139;-69
2021/10/13 05:30:16;;;;;;;6.47;4.68;;;;;;;3.37;84.82;100215.38;5003890;28;106636;-68
2021/10/13 05:32:42;;;;;;;8.45;4.00;;;;;;;3.47;84.87;100223.38;5002680;28;106055;-68
2021/10/13 05:35:07;;;;;;;8.18;4.40;;;;;;;3.56;85.13;100225.28;5005532;28;106000;-68
2021/10/13 05:37:33;;;;;;;8.50;4.60;;;;;;;3.65;84.77;100229.81;5005008;28;106162;-68
2021/10/13 05:39:58;;;;;;;13.02;4.32;;;;;;;3.76;84.74;100236.84;5004743;28;106746;-68
2021/10/13 05:42:23;;;;;;;7.45;4.53;;;;;;;3.81;84.94;100252.25;5004259;28;112345;-68
2021/10/13 05:44:49;;;;;;;8.88;4.90;;;;;;;3.86;84.40;100255.38;5005677;28;105855;-68
2021/10/13 05:47:14;;;;;;;7.40;4.85;;;;;;;3.92;84.82;100251.38;5004526;28;106147;-68
2021/10/13 05:49:39;;;;;;;10.63;4.45;;;;;;;3.95;84.68;100259.03;5004053;28;106769;-68
2021/10/13 05:52:05;;;;;;;5.85;4.50;;;;;;;4.01;84.31;100261.19;5003384;28;106265;-68
2021/10/13 05:54:31;;;;;;;6.78;4.00;;;;;;;4.04;84.32;100263.56;5005080;28;105874;-67
2021/10/13 05:56:56;;;;;;;7.65;4.38;;;;;;;4.06;84.63;100259.00;5004692;28;106262;-67
2021/10/13 05:59:22;;;;;;;12.32;4.25;;;;;;;4.09;84.42;100257.91;5004508;28;105799;-67
2021/10/13 06:01:47;;;;;;;10.07;4.75;;;;;;;4.14;84.39;100261.84;5003930;28;106012;-67
2021/10/13 06:04:13;;;;;;;8.80;4.22;;;;;;;4.16;84.24;100275.72;4997386;28;105801;-68
2021/10/13 06:06:38;;;;;;;8.20;4.78;;;;;;;4.19;83.99;100270.19;4990955;28;106231;-70
2021/10/13 06:09:03;;;;;;;10.02;4.57;;;;;;;4.24;84.09;100269.84;4991071;28;105968;-69
2021/10/13 06:11:29;;;;;;;11.50;4.35;;;;;;;4.30;84.28;100276.41;4990856;28;105802;-69
2021/10/13 06:13:54;;;;;;;8.88;3.95;;;;;;;4.34;84.05;100283.09;4991264;28;105818;-71
2021/10/13 06:16:20;;;;;;;8.18;4.70;;;;;;;4.39;84.52;100284.38;4991058;28;106166;-69
2021/10/13 06:18:48;;;;;;;8.57;4.40;;;;;;;4.45;84.19;100287.47;4990067;28;105771;-67
2021/10/13 06:21:14;;;;;;;8.18;4.38;;;;;;;4.50;83.77;100290.56;4990559;28;106182;-67
2021/10/13 06:23:39;;;;;;;6.80;4.55;;;;;;;4.55;84.41;100297.13;4991186;28;106005;-68
2021/10/13 06:26:05;;;;;;;7.35;4.15;;;;;;;4.60;83.72;100299.38;4990983;28;106015;-66
2021/10/13 06:28:31;;;;;;;5.78;3.78;;;;;;;4.67;83.95;100300.50;4990459;28;105909;-67
2021/10/13 06:30:57;;;;;;;8.52;4.40;;;;;;;4.74;83.94;100306.97;4990537;28;106013;-67
2021/10/13 06:33:22;;;;;;;7.15;3.97;;;;;;;4.80;83.61;100304.75;4991313;28;106321;-67
2021/10/13 06:35:47;;;;;;;6.20;4.38;;;;;;;4.87;83.67;100319.13;4990460;28;106253;-67
2021/10/13 06:38:13;;;;;;;8.55;4.28;;;;;;;4.95;83.56;100324.59;4990405;28;106658;-67
2021/10/13 06:40:38;;;;;;;9.80;4.72;;;;;;;5.03;83.89;100322.13;4989984;28;106100;-67
2021/10/13 06:43:05;;;;;;;8.75;4.13;;;;;;;5.07;83.49;100318.25;4991394;28;105773;-67
2021/10/13 06:45:35;;;;;;;8.25;4.32;;;;;;;5.11;83.36;100320.63;4990748;28;105769;-68
2021/10/13 06:48:00;;;;;;;;;;;;;;;5.15;83.34;100327.31;4990769;28;106155;-68
2021/10/13 06:50:26;;;;;;;6.10;4.50;;;;;;;5.19;83.35;100326.09;4997952;28;106088;-68
2021/10/13 06:52:51;;;;;;;8.88;3.85;;;;;;;5.20;83.06;100335.69;4995495;28;106391;-68
2021/10/13 06:55:16;;;;;;;7.57;4.35;;;;;;;5.22;83.17;100331.09;4995470;28;106153;-68
2021/10/13 06:57:41;;;;;;;7.13;4.13;;;;;;;5.23;83.13;100335.44;4989800;28;105881;-68
2021/10/13 07:00:07;;;;;;;5.38;3.95;;;;;;;5.25;82.82;100339.63;4989326;28;112228;-70
2021/10/13 07:02:33;;;;;;;6.60;4.25;;;;;;;5.30;82.96;100343.66;4990453;28;105864;-69
2021/10/13 07:04:58;;;;;;;6.65;4.13;;;;;;;5.33;83.11;100332.81;4990006;28;105722;-66
2021/10/13 07:07:23;;;;;;;6.47;3.72;;;;;;;5.39;83.04;100333.13;4989606;28;106678;-67
2021/10/13 07:09:49;;;;;;;5.22;4.13;;;;;;;5.47;82.88;100344.84;4925757;27;110407;-67
2021/10/13 07:12:14;;;;;;;6.20;3.72;;;;;;;5.53;82.99;100349.59;4930358;28;106163;-70
2021/10/13 07:14:39;;;;;;;6.07;4.43;;;;;;;5.61;83.07;100355.06;4930894;28;105986;-67
2021/10/13 07:17:05;;;;;;;6.07;3.90;;;;;;;5.72;83.01;100349.66;4929736;28;106027;-68
2021/10/13 07:19:30;;;;;;;5.90;3.78;;;;;;;5.81;82.94;100348.03;4929486;28;108751;-66
2021/10/13 07:21:55;;;;;;;5.18;3.80;;;;;;;5.87;82.44;100351.94;4929221;28;106234;-68
2021/10/13 07:24:21;;;;;;;6.45;4.22;;;;;;;5.90;82.10;100349.81;4928162;28;106190;-67
2021/10/13 07:26:46;;;;;;;7.35;4.07;;;;;;;5.95;82.43;100352.09;4927633;28;106262;-66
2021/10/13 07:29:12;;;;;;;7.85;4.57;;;;;;;6.04;82.16;100359.25;4927514;28;106036;-70
2021/10/13 07:31:38;;;;;;;8.30;4.13;;;;;;;6.13;82.06;100362.03;4928243;28;106348;-68
2021/10/13 07:34:03;;;;;;;6.85;4.15;;;;;;;6.18;81.81;100367.72;4927737;28;106693;-70
2021/10/13 07:36:29;;;;;;;8.55;4.57;;;;;;;6.26;81.82;100362.59;4929734;28;107303;-68
2021/10/13 07:38:54;;;;;;;5.85;4.15;;;;;;;6.39;82.29;100365.78;4929528;28;106018;-68
2021/10/13 07:41:20;;;;;;;10.73;4.28;;;;;;;6.50;81.71;100372.78;4930552;28;106086;-67
2021/10/13 07:43:46;;;;;;;7.22;4.22;;;;;;;6.59;81.45;100369.28;4929293;28;106338;-67
2021/10/13 07:46:12;;;;;;;6.03;4.45;;;;;;;6.69;81.16;100374.56;4929031;28;108052;-66
2021/10/13 07:48:38;;;;;;;6.30;5.00;;;;;;;6.81;81.46;100377.91;4929290;28;106339;-68
2021/10/13 07:51:04;;;;;;;6.65;4.60;;;;;;;6.94;81.62;100375.81;4930648;28;106044;-67
2021/10/13 07:53:30;;;;;;;6.32;4.85;;;;;;;7.00;81.11;100381.50;4929924;28;106369;-75
2021/10/13 07:55:55;;;;;;;12.68;6.38;;;;;;;7.04;80.60;100378.44;4920020;28;105961;-66
2021/10/13 07:58:20;;;;;;;6.53;5.18;;;;;;;7.03;80.60;100376.75;4914964;28;106086;-69
2021/10/13 08:00:45;;;;;;;7.78;4.97;;;;;;;7.06;80.44;100381.75;4911601;28;106295;-66
2021/10/13 08:03:11;;;;;;;9.55;5.05;;;;;;;7.18;80.58;100379.81;4911044;28;105703;-68
2021/10/13 08:05:38;;;;;;;13.85;5.30;;;;;;;7.31;80.95;100383.94;4918284;28;106695;-64
2021/10/13 08:08:04;;;;;;;6.57;5.10;;;;;;;7.43;80.63;100388.09;4917261;28;106252;-63
2021/10/13 08:10:29;;;;;;;7.85;4.57;;;;;;;7.49;80.17;100387.53;4914016;28;105892;-64
2021/10/13 08:12:55;;;;;;;9.10;4.63;;;;;;;7.49;79.70;100391.97;4918369;28;106115;-63
2021/10/13 08:15:20;;;;;;;8.98;5.50;;;;;;;7.56;79.97;100393.91;4915645;28;106063;-66
2021/10/13 08:17:46;;;;;;;8.30;5.03;;;;;;;7.65;79.29;100401.97;4916705;28;106103;-64
2021/10/13 08:20:11;;;;;;;7.90;4.28;;;;;;;7.71;80.00;100404.88;4915505;28;105969;-64
2021/10/13 08:22:41;;;;;;;8.38;3.72;;;;;;;7.80;79.68;100397.84;4918068;28;106335;-63
2021/10/13 08:25:07;;;;;;;7.80;4.73;;;;;;;8.14;80.25;100397.25;4928397;28;106043;-65
2021/10/13 08:27:33;;;;;;;5.18;3.72;;;;;;;9.45;81.70;100394.84;4927755;28;106974;-64
2021/10/13 08:29:58;;;;;;;8.85;4.07;;;;;;;12.32;84.07;100404.81;4929034;28;106044;-64
2021/10/13 08:32:23;;;;;;;4.70;2.78;;;;;;;16.80;82.61;100391.50;4928107;28;106239;-66
2021/10/13 08:34:49;;;;;;;5.53;3.50;;;;;;;19.53;78.16;100396.63;4928043;28;106402;-66
2021/10/13 08:37:14;;;;;;;4.45;3.28;;;;;;;20.18;71.03;100399.84;4927968;28;106108;-66
2021/10/13 08:39:40;;;;;;;3.67;2.75;;;;;;;19.51;67.23;100409.53;4929189;28;106593;-66
2021/10/13 08:42:05;;;;;;;4.43;2.92;;;;;;;19.77;67.00;100408.41;4928253;28;106409;-66
2021/10/13 08:44:32;;;;;;;5.93;2.80;;;;;;;19.38;64.80;100407.81;4928258;28;106033;-71
2021/10/13 08:46:57;;;;;;;4.32;2.88;;;;;;;18.60;63.33;100419.81;4927634;28;106041;-71
2021/10/13 08:49:23;;;;;;;5.28;2.88;;;;;;;17.46;62.90;100414.88;4928709;28;106178;-73
2021/10/13 08:51:49;;;;;;;6.90;3.05;;;;;;;16.56;63.36;100426.84;4927968;28;106521;-72
2021/10/13 08:54:17;;;;;;;3.28;2.70;;;;;;;15.80;62.99;100427.00;4920794;28;106458;-72
2021/10/13 08:56:44;;;;;;;5.68;2.85;;;;;;;15.43;63.63;100421.78;4906459;28;106547;-71
2021/10/13 08:59:09;;;;;;;4.50;2.72;;;;;;;15.46;64.34;100416.06;4908662;28;106137;-71
2021/10/13 09:01:48;;;;;;;3.60;2.55;;;;;;;17.17;66.08;100419.69;4908224;28;106440;-71
2021/10/13 09:04:14;;;;;;;5.60;2.83;;;;;;;17.85;62.99;100421.22;4907575;28;106068;-71
2021/10/13 09:06:39;;;;;;;4.50;2.40;;;;;;;17.25;59.50;100422.19;4907819;28;106042;-70
2021/10/13 09:09:11;;;;;;;4.05;2.38;;;;;;;16.48;59.38;100427.03;4908455;28;106748;-74
2021/10/13 09:11:41;;;;;;;9.27;2.58;;;;;;;16.86;61.05;100426.47;4907735;28;106492;-73
2021/10/13 09:14:19;;;;;;;5.28;2.85;;;;;;;16.95;60.13;100421.78;4907200;28;106026;-72
2021/10/13 09:17:01;;;;;;;6.18;2.58;;;;;;;16.94;58.88;100424.69;4907786;28;106167;-74
2021/10/13 09:19:38;;;;;;;6.40;3.30;;;;;;;18.85;60.45;100411.78;4908477;28;106669;-73
2021/10/13 09:22:08;;;;;;;7.63;2.72;;;;;;;20.11;55.82;100408.03;4907561;28;106459;-73
2021/10/13 09:24:39;;;;;;;;;;;;;;;20.61;53.46;100425.84;4908096;28;106731;-73
2021/10/13 09:27:23;;;;;;;;;;;;;;;21.34;53.05;100420.31;4908052;28;106537;-74
2021/10/13 09:29:49;;;;;;;5.00;2.30;;;;;;;22.52;53.46;100436.34;4907830;28;106086;-74
2021/10/13 09:32:20;;;;;;;4.75;2.10;;;;;;;26.20;49.39;100432.69;4911120;28;106324;-71
2021/10/13 09:34:52;;;;;;;2.70;1.77;;;;;;;28.31;42.88;100435.16;4909287;28;105870;-73
2021/10/13 09:37:18;;;;;;;9.90;4.45;;;;;;;30.59;39.61;100434.44;4909217;28;106027;-72
2021/10/13 09:40:06;;;;;;;11.23;5.45;;;;;;;31.94;34.69;100441.13;4912241;28;106083;-72
2021/10/13 09:42:40;;;;;;;8.05;3.42;;;;;;;33.66;30.76;100448.53;4912440;28;105920;-72
2021/10/13 09:45:10;;;;;;;6.20;3.30;;;;;;;32.96;29.06;100449.00;4911693;28;105939;-72
2021/10/13 09:47:36;;;;;;;10.27;4.25;;;;;;;34.72;26.47;100445.59;4911679;28;106245;-70
2021/10/13 09:50:07;;;;;;;6.43;3.13;;;;;;;34.80;24.35;100455.00;4912762;28;106082;-72
2021/10/13 09:52:32;;;;;;;4.57;2.55;;;;;;;32.43;25.25;100463.50;4912008;28;107174;-74
2021/10/13 09:55:10;;;;;;;7.95;4.05;;;;;;;29.34;26.43;100456.31;4912527;28;106382;-76
2021/10/13 09:57:41;;;;;;;5.40;3.10;;;;;;;26.89;28.86;100454.41;4912161;28;106568;-77
2021/10/13 10:00:22;;;;;;;5.75;3.03;;;;;;;24.74;30.84;100459.31;4912931;28;105990;-74
2021/10/13 10:02:56;;;;;;;7.30;3.97;;;;;;;23.68;32.23;100464.03;4911757;28;106386;-74
2021/10/13 10:05:32;;;;;;;6.60;3.05;;;;;;;23.78;32.46;100468.78;4912214;28;106447;-72
2021/10/13 10:08:02;;;;;;;5.68;3.10;;;;;;;23.52;32.26;100470.31;4910479;28;106055;-71
2021/10/13 10:10:29;;;;;;;7.38;3.40;;;;;;;23.02;32.78;100467.38;4913021;28;106211;-73
2021/10/13 10:13:07;;;;;;;7.22;2.40;;;;;;;22.42;32.57;100466.03;4913059;28;106634;-73
2021/10/13 10:15:47;;;;;;;4.43;1.92;;;;;;;22.29;33.17;100465.22;4929885;28;106144;-74
2021/10/13 10:18:33;;;;;;;5.35;2.60;;;;;;;22.21;33.20;100460.19;4930969;28;106267;-72
2021/10/13 10:21:24;;;;;;;5.68;2.65;;;;;;;21.46;32.99;100464.53;4923357;28;106031;-73
2021/10/13 10:24:38;;;;;;;9.20;2.63;;;;;;;21.05;34.17;100468.94;4922486;28;106251;-73
2021/10/13 10:27:30;;;;;;;4.00;2.00;;;;;;;22.70;33.26;100465.19;4915995;28;106487;-74
2021/10/13 10:30:07;;;;;;;4.65;1.50;;;;;;;26.07;30.56;100458.59;4918504;28;106006;-76
2021/10/13 10:32:33;;;;;;;5.30;2.40;;;;;;;26.90;28.27;100458.78;4915126;28;106538;-75
2021/10/13 10:35:04;;;;;;;3.53;1.60;;;;;;;31.54;24.47;100463.66;4913205;28;106152;-72
2021/10/13 10:37:46;;;;;;;4.93;1.80;;;;;;;34.60;20.60;100467.56;4916936;28;105940;-71
2021/10/13 10:40:20;;;;;;;3.17;1.70;;;;;;;33.56;20.70;100477.25;4918983;28;106039;-71
2021/10/13 10:42:50;;;;;;;4.53;1.77;;;;;;;32.17;21.17;100472.34;4920179;28;106650;-71
2021/10/13 10:45:33;;;;;;;2.88;1.52;;;;;;;29.50;23.39;100486.38;4922426;28;105941;-71
2021/10/13 10:47:59;;;;;;;3.35;1.55;;;;;;;26.57;25.83;100482.75;4920646;28;106789;-69
2021/10/13 10:50:30;;;;;;;4.72;1.90;;;;;;;24.35;27.78;100483.94;4919499;28;106004;-72
2021/10/13 10:53:14;;;;;;;4.07;1.75;;;;;;;22.34;30.41;100480.81;4922021;28;105989;-71
2021/10/13 10:55:42;;;;;;;6.18;2.13;;;;;;;20.67;32.62;100492.59;4919701;28;106151;-68
2021/10/13 10:58:29;;;;;;;4.13;1.98;;;;;;;19.76;34.31;100481.63;4920175;28;106363;-71
2021/10/13 11:01:00;;;;;;;2.47;1.70;;;;;;;20.86;34.68;100485.28;4921594;28;105927;-69
2021/10/13 11:03:36;;;;;;;2.90;1.75;;;;;;;22.82;32.93;100478.69;4921128;28;105784;-70
2021/10/13 11:06:21;;;;;;;3.75;2.10;;;;;;;23.27;31.02;100491.44;4919747;28;106085;-69
2021/10/13 11:09:05;;;;;;;3.50;1.58;;;;;;;22.95;30.82;100485.69;4913085;28;106426;-69
2021/10/13 11:11:40;;;;;;;3.45;1.65;;;;;;;21.69;31.59;100481.84;4919402;28;106073;-67
2021/10/13 11:14:10;;;;;;;2.55;1.58;;;;;;;23.86;31.51;100471.06;4922246;28;106498;-68
2021/10/13 11:16:47;;;;;;;3.53;1.30;;;;;;;27.06;27.32;100473.28;4916394;28;106262;-69
2021/10/13 11:19:17;;;;;;;3.22;2.08;;;;;;;24.90;27.84;100479.34;4919557;28;106506;-70
2021/10/13 11:21:44;;;;;;;5.03;2.10;;;;;;;26.82;28.33;100482.03;4919105;28;106235;-69
2021/10/13 11:24:09;;;;;;;5.07;1.95;;;;;;;28.67;25.73;100484.28;4914032;28;106351;-70
2021/10/13 11:26:35;;;;;;;2.70;1.70;;;;;;;30.45;23.60;100481.13;4911100;28;106224;-70
2021/10/13 11:29:01;;;;;;;4.68;2.38;;;;;;;28.84;23.72;100483.06;4910495;28;106752;-70
2021/10/13 11:31:26;;;;;;;4.25;2.00;;;;;;;27.17;25.29;100483.09;4910850;28;105949;-69
2021/10/13 11:34:06;;;;;;;2.90;1.60;;;;;;;24.81;27.38;100481.72;4911390;28;106070;-67
2021/10/13 11:36:31;;;;;;;3.20;1.58;;;;;;;22.81;29.45;100479.75;4910949;28;106260;-68
2021/10/13 11:38:56;;;;;;;3.50;1.70;;;;;;;23.43;30.95;100478.09;4910590;28;105886;-68
2021/10/13 11:41:22;;;;;;;4.97;1.50;;;;;;;26.34;28.27;100482.16;4910630;28;106177;-68
2021/10/13 11:43:47;;;;;;;4.38;1.40;;;;;;;28.62;24.75;100481.53;4911213;28;106388;-68
2021/10/13 11:46:17;;;;;;;3.47;1.30;;;;;;;28.75;23.42;100476.56;4910657;28;106611;-67
2021/10/13 11:48:43;;;;;;;3.40;1.73;;;;;;;28.36;23.62;100478.13;4910124;28;105987;-67
2021/10/13 11:51:14;;;;;;;2.47;1.83;;;;;;;30.35;22.29;100476.56;4910060;28;105749;-68
2021/10/13 11:53:40;;;;;;;4.13;1.60;;;;;;;31.63;20.66;100466.53;4910792;28;105906;-67
2021/10/13 11:56:10;;;;;;;4.85;1.98;;;;;;;33.50;18.56;100470.22;4909711;28;106228;-68
2021/10/13 11:58:36;;;;;;;4.63;1.63;;;;;;;35.70;17.22;100466.34;4910541;28;106647;-68
2021/10/13 12:01:01;;;;;;;4.25;1.70;;;;;;;37.63;15.93;100470.22;4910038;28;106176;-69
2021/10/13 12:03:31;;;;;;;4.03;1.55;;;;;;;39.32;14.43;100469.56;4910467;28;106441;-69
2021/10/13 12:05:58;;;;;;;3.05;1.60;;;;;;;39.24;14.48;100470.56;4909919;28;106287;-69
2021/10/13 12:08:33;;;;;;;4.40;1.50;;;;;;;39.07;14.13;100480.06;4910191;28;105802;-69
2021/10/13 12:11:21;;;;;;;2.17;1.17;;;;;;;35.19;15.50;100468.97;4909786;28;106089;-69
2021/10/13 12:13:49;;;;;;;3.97;1.38;;;;;;;35.79;15.85;100469.88;4910289;28;106055;-69
2021/10/13 12:16:26;;;;;;;2.37;1.30;;;;;;;34.01;17.02;100479.88;4909867;28;106239;-68
2021/10/13 12:18:51;;;;;;;3.85;0.95;;;;;;;31.93;18.72;100475.31;4910382;28;105992;-68
2021/10/13 12:21:22;;;;;;;2.75;1.10;;;;;;;30.79;19.31;100474.56;4909768;28;106433;-67
2021/10/13 12:24:04;;;;;;;3.55;1.20;;;;;;;31.60;18.91;100476.22;4910638;28;106756;-68
2021/10/13 12:26:37;;;;;;;5.70;1.40;;;;;;;30.53;19.21;100476.88;4909944;28;106386;-68
2021/10/13 12:29:14;;;;;;;3.65;1.02;;;;;;;28.00;21.13;100481.06;4909736;28;106586;-68
2021/10/13 12:31:40;;;;;;;2.78;1.55;;;;;;;25.91;23.34;100484.16;4909158;28;106330;-68
2021/10/13 12:34:16;;;;;;;5.70;1.40;;;;;;;26.93;23.26;100475.47;4910486;28;105691;-68
2021/10/13 12:36:54;;;;;;;3.15;1.20;;;;;;;26.69;22.93;100480.59;4910077;28;105884;-68
2021/10/13 12:39:31;;;;;;;5.50;1.35;;;;;;;25.55;23.53;100478.47;4909843;28;106313;-67
2021/10/13 12:42:06;;;;;;;2.80;1.23;;;;;;;25.98;24.41;100471.06;4909556;28;106087;-67
2021/10/13 12:44:32;;;;;;;4.15;1.15;;;;;;;29.92;20.79;100464.78;4910278;28;106027;-68
2021/10/13 12:46:59;;;;;;;4.32;1.02;;;;;;;30.53;19.18;100468.66;4909737;28;106011;-68
2021/10/13 12:49:36;;;;;;;4.38;1.20;;;;;;;28.28;20.83;100465.88;4909583;28;106610;-67
2021/10/13 12:52:05;;;;;;;1.92;0.98;;;;;;;25.71;22.87;100479.41;4908920;28;106050;-66
2021/10/13 12:54:33;;;;;;;3.00;1.00;;;;;;;23.20;25.27;100479.91;4909894;28;106146;-65
2021/10/13 12:56:59;;;;;;;5.82;1.50;;;;;;;21.39;27.84;100485.47;4909110;28;106252;-67
2021/10/13 12:59:25;;;;;;;2.50;1.15;;;;;;;19.93;29.84;100471.06;4909033;28;105916;-65
2021/10/13 13:26:23;;;;;;;2.65;0.98;;;;;;;37.48;14.46;100480.03;5005903;28;106586;-70
2021/10/13 13:28:50;;;;;;;1.67;0.77;;;;;;;35.12;15.52;100474.16;5005851;28;105959;-70
2021/10/13 13:31:15;;;;;;;1.65;0.95;;;;;;;31.66;18.20;100491.53;5004909;28;106211;-70
2021/10/13 13:33:41;;;;;;;2.63;0.82;;;;;;;29.77;19.85;100485.81;5004509;28;106539;-70
2021/10/13 13:36:14;;;;;;;3.35;1.08;;;;;;;29.03;21.24;100486.78;5004355;28;105893;-69
2021/10/13 13:38:39;;;;;;;4.00;0.60;;;;;;;31.38;19.21;100483.22;5005215;28;105761;-69
2021/10/13 13:41:05;;;;;;;1.08;0.60;;;;;;;32.81;17.79;100497.09;5004956;28;106138;-72
2021/10/13 13:43:32;;;;;;;2.35;0.68;;;;;;;33.51;16.53;100491.19;5004617;28;107980;-72
2021/10/13 13:45:58;;;;;;;2.35;0.80;;;;;;;33.06;17.31;100492.88;5003886;28;106418;-69
2021/10/13 13:48:23;;;;;;;3.13;1.38;;;;;;;33.94;16.24;100493.31;5005462;28;106032;-70
2021/10/13 13:50:48;;;;;;;3.95;1.10;;;;;;;34.50;15.89;100498.31;5004810;28;106164;-74
2021/10/13 13:53:14;;;;;;;5.70;1.05;;;;;;;35.06;15.31;100492.91;5003762;28;107230;-70
2021/10/13 13:55:41;;;;;;;5.22;1.10;;;;;;;32.68;16.72;100504.28;5004605;28;106238;-71
2021/10/13 13:58:06;;;;;;;2.75;1.00;;;;;;;29.02;19.64;100509.81;5005513;28;105874;-70
2021/10/13 14:00:32;;;;;;;1.55;0.80;;;;;;;28.37;20.98;100497.03;5005010;28;105812;-73
2021/10/13 14:02:57;;;;;;;1.75;0.95;;;;;;;30.20;20.06;100512.50;5004348;28;105843;-73
2021/10/13 14:05:23;;;;;;;3.92;1.15;;;;;;;30.49;19.31;100506.09;5003171;28;106371;-74
2021/10/13 14:07:48;;;;;;;4.32;1.33;;;;;;;30.26;19.00;100511.31;5005367;28;106384;-70
2021/10/13 14:10:14;;;;;;;3.03;0.90;;;;;;;28.65;20.75;100508.44;5004759;28;106176;-70
2021/10/13 14:12:40;;;;;;;7.05;1.52;;;;;;;27.53;22.05;100508.53;5004078;28;105982;-68
2021/10/13 14:15:06;;;;;;;3.67;1.70;;;;;;;25.75;23.31;100510.53;5003206;28;106236;-69
2021/10/13 14:17:31;;;;;;;4.43;1.65;;;;;;;23.88;25.56;100507.06;5005008;28;106026;-71
2021/10/13 14:19:57;;;;;;;5.25;1.40;;;;;;;24.64;25.35;100509.06;5004236;28;106141;-70
2021/10/13 14:22:22;;;;;;;2.80;1.20;;;;;;;23.18;26.09;100511.13;5004166;28;106288;-70
2021/10/13 14:24:47;;;;;;;2.22;1.15;;;;;;;21.37;27.98;100517.41;5003368;28;106205;-71
2021/10/13 14:27:13;;;;;;;3.28;1.23;;;;;;;20.70;29.56;100521.94;5004710;28;106025;-69
2021/10/13 14:29:38;;;;;;;2.22;1.15;;;;;;;20.72;29.84;100524.41;5002116;28;106511;-70
2021/10/13 14:32:05;;;;;;;2.47;1.20;;;;;;;19.71;30.81;100524.69;5003832;28;105974;-67
2021/10/13 14:34:31;;;;;;;2.10;0.90;;;;;;;18.90;31.75;100525.34;5003850;28;105993;-68
2021/10/13 14:36:56;;;;;;;4.40;0.90;;;;;;;19.10;32.19;100521.69;4995627;28;106033;-68
2021/10/13 14:39:22;;;;;;;2.60;0.70;;;;;;;20.32;31.57;100528.44;4990537;28;106138;-68
2021/10/13 14:41:47;;;;;;;3.35;1.23;;;;;;;22.13;28.87;100517.53;4989565;28;106033;-70
2021/10/13 14:44:13;;;;;;;2.33;0.90;;;;;;;23.69;27.07;100519.22;4990148;28;106086;-68
2021/10/13 14:46:40;;;;;;;2.72;1.02;;;;;;;25.05;25.35;100524.16;4990301;28;105955;-71
2021/10/13 14:49:05;;;;;;;3.60;1.33;;;;;;;26.08;24.20;100519.47;4989271;28;105878;-70
2021/10/13 14:51:33;;;;;;;3.90;1.15;;;;;;;27.09;23.02;100527.41;4986558;28;105939;-70
2021/10/13 14:54:04;;;;;;;4.70;1.65;;;;;;;27.43;22.38;100527.69;4988347;28;105957;-70
2021/10/13 14:56:29;;;;;;;2.17;1.10;;;;;;;27.67;22.09;100527.94;4989723;28;105980;-70
2021/10/13 14:58:54;;;;;;;2.65;1.08;;;;;;;27.42;22.32;100528.81;4989141;28;106305;-70
2021/10/13 15:01:22;;;;;;;6.93;2.15;;;;;;;26.84;22.25;100532.56;4988518;28;106701;-70
2021/10/13 15:03:49;;;;;;;6.75;3.03;;;;;;;25.96;23.47;100533.31;4988572;28;106124;-70
2021/10/13 15:06:14;;;;;;;5.78;2.60;;;;;;;25.58;23.92;100533.34;4989327;28;106228;-70
2021/10/13 15:08:39;;;;;;;7.28;3.67;;;;;;;24.94;24.24;100545.88;4988544;28;106220;-73
2021/10/13 15:11:05;;;;;;;12.77;5.10;;;;;;;24.12;25.16;100544.91;4988555;28;106457;-69
2021/10/13 15:13:30;;;;;;;8.98;2.97;;;;;;;23.48;26.16;100543.41;4988243;28;105989;-69
2021/10/13 15:15:55;;;;;;;4.00;1.70;;;;;;;22.78;26.98;100551.69;4989067;28;106354;-69
2021/10/13 15:18:21;;;;;;;4.18;2.05;;;;;;;22.10;27.76;100550.53;4988362;28;105901;-69
2021/10/13 15:20:46;;;;;;;4.43;1.50;;;;;;;21.61;28.03;100550.78;4988088;28;106019;-67
2021/10/13 15:23:13;;;;;;;5.50;1.85;;;;;;;21.11;28.87;100555.53;4988215;28;106451;-68
2021/10/13 15:25:40;;;;;;;2.75;1.40;;;;;;;20.53;29.51;100556.06;4988370;28;106204;-68
2021/10/13 15:28:06;;;;;;;3.15;1.63;;;;;;;20.05;30.39;100563.91;4988108;28;106458;-68
2021/10/13 15:30:31;;;;;;;2.30;1.15;;;;;;;19.69;30.63;100562.75;4988259;28;106014;-70
2021/10/13 15:32:56;;;;;;;4.93;1.50;;;;;;;19.14;31.28;100554.47;4988206;28;106017;-69
2021/10/13 15:35:25;;;;;;;4.20;1.40;;;;;;;18.34;32.37;100561.06;4989002;28;106062;-68
2021/10/13 15:37:51;;;;;;;3.97;1.55;;;;;;;17.07;33.48;100567.31;4988268;28;106630;-67
2021/10/13 15:40:17;;;;;;;4.20;1.50;;;;;;;15.94;35.52;100573.81;4987578;28;107202;-67
2021/10/13 15:42:43;;;;;;;3.42;1.55;;;;;;;14.84;36.77;100584.78;4987700;28;106092;-68
2021/10/13 15:45:10;;;;;;;3.03;1.50;;;;;;;13.93;38.37;100570.72;4988713;28;106650;-68
2021/10/13 15:47:36;;;;;;;6.70;2.03;;;;;;;13.15;39.48;100589.56;4987280;28;106219;-69
2021/10/13 15:50:04;;;;;;;3.80;1.60;;;;;;;12.52;41.12;100586.88;4986889;28;106529;-70
2021/10/13 15:52:29;;;;;;;9.68;1.85;;;;;;;12.00;42.18;100585.53;4987337;28;106056;-69
2021/10/13 15:54:55;;;;;;;4.70;1.60;;;;;;;11.56;42.40;100593.91;4988532;28;106162;-69
2021/10/13 15:57:23;;;;;;;5.60;1.80;;;;;;;11.22;43.52;100590.41;4988229;28;106250;-69
2021/10/13 15:59:48;;;;;;;3.95;2.05;;;;;;;10.89;44.06;100592.97;4984525;28;106031;-70
2021/10/13 16:02:14;;;;;;;4.18;2.00;;;;;;;10.58;45.05;100601.53;4970198;28;105931;-68
2021/10/13 16:04:39;;;;;;;3.92;2.20;;;;;;;10.28;45.62;100598.38;4969787;28;106179;-68
2021/10/13 16:07:04;;;;;;;8.55;3.67;;;;;;;10.05;45.99;100611.38;4969232;28;106166;-69
2021/10/13 16:09:31;;;;;;;7.15;3.17;;;;;;;9.85;46.83;100604.59;4969314;28;106416;-69
2021/10/13 16:11:56;;;;;;;7.40;4.05;;;;;;;9.63;47.10;100610.22;4968437;28;106222;-69
2021/10/13 16:14:22;;;;;;;9.07;3.80;;;;;;;9.45;47.82;100620.88;4969394;28;105951;-68
2021/10/13 16:16:48;;;;;;;6.43;3.30;;;;;;;9.24;48.62;100621.19;4968776;28;106216;-69
2021/10/13 16:19:13;;;;;;;5.35;2.40;;;;;;;9.10;49.01;100621.69;4968751;28;106323;-67
2021/10/13 16:21:40;;;;;;;5.50;2.35;;;;;;;8.99;49.19;100625.41;4968868;28;105833;-69
2021/10/13 16:24:08;;;;;;;7.43;2.85;;;;;;;8.88;49.37;100628.28;4969076;28;105971;-68
2021/10/13 16:26:36;;;;;;;9.43;3.97;;;;;;;8.83;50.27;100625.22;4968887;28;105959;-68
2021/10/13 16:29:03;;;;;;;9.45;3.35;;;;;;;8.79;50.63;100630.00;4968359;28;105992;-68
2021/10/13 16:31:28;;;;;;;6.13;3.25;;;;;;;8.75;50.65;100634.75;4968735;28;106500;-68
2021/10/13 16:33:54;;;;;;;6.85;3.35;;;;;;;8.68;50.59;100636.34;4969362;28;106470;-69
2021/10/13 16:36:19;;;;;;;7.53;3.00;;;;;;;8.62;50.96;100639.56;4969132;28;106186;-69
2021/10/13 16:38:44;;;;;;;6.97;3.03;;;;;;;8.61;51.67;100640.56;4968585;28;107099;-68
2021/10/13 16:41:11;;;;;;;11.77;4.13;;;;;;;8.62;51.79;100650.19;4968872;28;108389;-69